Time;durP1;ratioP1;P1;durP2;ratioP2;P2;SDS_P1;SDS_P2;PMS_P1;PMS_P2;Temp;Humidity;BMP_temperature;BMP_pressure;BME280_temperature;BME280_humidity;BME280_pressure;Samples;Min_cycle;Max_cycle;Signal;HPM_P1;HPM_P2
2022/08/19 00:04:35;;;;;;;2.80;1.12;;;23.50;71.80;;;;;;10753560;33;20317;-72
2022/08/19 00:10:38;;;;;;;1.65;0.82;;;23.70;71.30;;;;;;10753496;33;20044;-71
2022/08/19 00:16:41;;;;;;;3.87;1.02;;;23.70;71.30;;;;;;10753335;33;20021;-72
2022/08/19 00:22:47;;;;;;;2.80;1.50;;;23.70;71.50;;;;;;10752762;33;20016;-72
2022/08/19 00:28:50;;;;;;;5.28;2.08;;;23.60;71.60;;;;;;10752825;33;20291;-72
2022/08/19 00:34:53;;;;;;;8.20;2.50;;;23.40;72.30;;;;;;10752764;33;20024;-72
2022/08/19 00:40:56;;;;;;;4.10;1.62;;;23.30;72.20;;;;;;10752564;33;20334;-72
2022/08/19 00:46:58;;;;;;;2.33;1.35;;;23.40;72.20;;;;;;10752483;33;20353;-72
2022/08/19 00:53:03;;;;;;;2.97;1.35;;;23.50;71.80;;;;;;10752406;33;20013;-72
2022/08/19 00:59:09;;;;;;;6.62;1.60;;;23.50;71.60;;;;;;10752280;33;20052;-72
2022/08/19 01:05:15;;;;;;;5.62;1.67;;;23.50;71.40;;;;;;10751905;32;20051;-72
2022/08/19 01:11:17;;;;;;;2.95;1.48;;;23.40;71.70;;;;;;10751843;33;20017;-73
2022/08/19 01:17:20;;;;;;;1.45;1.23;;;23.30;72.20;;;;;;10751738;33;20044;-75
2022/08/19 01:23:42;;;;;;;4.00;1.75;;;23.10;72.60;;;;;;10751339;33;20024;-74
2022/08/19 01:29:53;;;;;;;6.40;1.95;;;23.20;72.30;;;;;;10751443;33;20066;-73
2022/08/19 01:36:08;;;;;;;3.97;1.40;;;23.10;72.80;;;;;;10755547;33;20039;-74
2022/08/19 01:42:11;;;;;;;5.93;1.58;;;23.10;72.60;;;;;;10763181;33;20059;-73
2022/08/19 01:48:14;;;;;;;3.22;1.58;;;23.10;72.70;;;;;;10759949;33;20012;-74
2022/08/19 01:54:19;;;;;;;7.25;1.95;;;23.10;72.70;;;;;;10762998;33;20432;-74
2022/08/19 02:00:24;;;;;;;10.93;1.70;;;23.20;72.50;;;;;;10762877;33;20348;-74
2022/08/19 02:06:27;;;;;;;3.90;1.00;;;22.90;73.70;;;;;;10762766;33;20082;-74
2022/08/19 02:12:35;;;;;;;12.10;1.30;;;22.80;73.80;;;;;;10762667;33;20047;-73
2022/08/19 02:18:37;;;;;;;5.43;2.12;;;22.90;73.30;;;;;;10762484;33;20017;-74
2022/08/19 02:24:40;;;;;;;3.60;1.73;;;23.00;73.00;;;;;;10762231;33;20056;-74
2022/08/19 02:30:42;;;;;;;2.87;1.27;;;23.00;73.10;;;;;;10762203;33;20021;-74
2022/08/19 02:37:00;;;;;;;8.38;2.08;;;22.90;73.40;;;;;;10762047;33;20020;-74
2022/08/19 02:43:07;;;;;;;4.50;2.10;;;22.90;73.30;;;;;;10761968;33;20025;-74
2022/08/19 02:49:09;;;;;;;9.50;2.92;;;22.60;74.50;;;;;;10757492;33;20016;-73
2022/08/19 02:55:35;;;;;;;4.80;2.05;;;22.30;75.40;;;;;;10755754;33;20294;-72
2022/08/19 03:01:40;;;;;;;6.75;2.05;;;22.10;76.20;;;;;;10755498;33;20052;-73
2022/08/19 03:07:54;;;;;;;5.95;2.67;;;22.10;76.30;;;;;;10754527;33;20021;-72
2022/08/19 03:13:57;;;;;;;2.62;1.83;;;22.10;76.30;;;;;;10755956;33;20051;-72
2022/08/19 03:19:59;;;;;;;3.72;1.30;;;22.00;76.20;;;;;;10755124;33;20066;-73
2022/08/19 03:26:04;;;;;;;2.37;1.20;;;22.10;76.10;;;;;;10754856;33;20029;-72
2022/08/19 03:32:06;;;;;;;5.00;1.55;;;22.10;75.80;;;;;;10754586;33;20075;-72
2022/08/19 03:38:08;;;;;;;6.15;1.67;;;22.20;75.70;;;;;;10754585;33;20427;-72
2022/08/19 03:44:11;;;;;;;2.53;1.65;;;22.00;75.80;;;;;;10754251;33;20032;-72
2022/08/19 03:50:13;;;;;;;3.08;1.00;;;22.20;75.30;;;;;;10753210;33;20036;-72
2022/08/19 03:56:15;;;;;;;2.05;1.12;;;22.30;74.70;;;;;;10754005;33;20059;-72
2022/08/19 04:02:17;;;;;;;3.53;0.95;;;22.30;74.60;;;;;;10754632;33;20028;-72
2022/08/19 04:08:22;;;;;;;0.85;0.62;;;22.30;74.30;;;;;;10753641;33;20020;-72
2022/08/19 04:14:33;;;;;;;6.60;1.30;;;22.40;74.00;;;;;;10753443;33;20417;-72
2022/08/19 04:20:40;;;;;;;2.12;0.65;;;22.50;73.60;;;;;;10753147;33;20021;-72
2022/08/19 04:26:43;;;;;;;2.03;0.93;;;22.60;73.30;;;;;;10759951;27;20028;-72
2022/08/19 04:32:45;;;;;;;1.37;0.95;;;22.60;73.20;;;;;;10789347;33;20070;-72
2022/08/19 04:38:48;;;;;;;0.98;0.68;;;22.50;73.00;;;;;;10788987;33;20047;-72
2022/08/19 04:44:51;;;;;;;2.35;1.02;;;22.40;73.30;;;;;;10789002;33;20020;-72
2022/08/19 04:50:58;;;;;;;2.85;0.95;;;22.30;73.30;;;;;;10788774;33;20054;-72
2022/08/19 04:57:00;;;;;;;1.17;0.53;;;22.30;73.30;;;;;;10788842;33;20043;-72
2022/08/19 05:03:39;;;;;;;2.85;1.23;;;22.30;73.30;;;;;;10788583;33;20055;-72
2022/08/19 05:09:42;;;;;;;1.95;0.82;;;22.30;73.10;;;;;;10787969;33;20032;-72
2022/08/19 05:15:53;;;;;;;3.67;1.00;;;22.30;73.10;;;;;;10788080;33;20016;-72
2022/08/19 05:28:16;;;;;;;2.95;1.12;;;22.10;73.30;;;;;;10788216;33;20450;-72
2022/08/19 05:34:21;;;;;;;1.00;0.85;;;22.30;73.00;;;;;;10787889;33;20051;-73
2022/08/19 05:40:23;;;;;;;1.50;1.02;;;22.40;72.60;;;;;;10787602;33;20043;-72
2022/08/19 05:46:28;;;;;;;2.35;1.02;;;22.40;72.50;;;;;;10787661;33;20051;-72
2022/08/19 05:52:30;;;;;;;1.75;1.08;;;22.40;72.60;;;;;;10787398;33;20055;-71
2022/08/19 05:58:33;;;;;;;5.55;1.05;;;22.40;72.80;;;;;;10787233;33;20058;-72
2022/08/19 06:04:39;;;;;;;6.25;1.17;;;22.40;72.80;;;;;;10787219;33;20012;-72
2022/08/19 06:10:41;;;;;;;0.88;0.65;;;22.60;72.60;;;;;;10787045;33;20036;-72
2022/08/19 06:16:45;;;;;;;1.55;0.77;;;22.70;72.30;;;;;;10783828;33;20435;-72
2022/08/19 06:22:50;;;;;;;0.40;0.40;;;22.90;72.10;;;;;;10788574;33;20419;-73
2022/08/19 06:28:52;;;;;;;1.20;0.40;;;22.90;72.00;;;;;;10793000;33;20016;-72
2022/08/19 06:34:54;;;;;;;1.58;0.77;;;23.00;71.80;;;;;;10790812;33;20029;-72
2022/08/19 06:41:02;;;;;;;4.12;0.88;;;23.00;71.80;;;;;;10792878;33;20364;-73
2022/08/19 06:47:08;;;;;;;1.20;0.77;;;23.00;71.90;;;;;;10792523;33;20352;-72
2022/08/19 06:53:10;;;;;;;1.17;0.90;;;23.00;71.90;;;;;;10792321;33;20392;-72
2022/08/19 06:59:19;;;;;;;0.80;0.77;;;23.10;71.90;;;;;;10792167;33;20024;-72
2022/08/19 07:05:21;;;;;;;1.25;0.85;;;23.30;71.60;;;;;;10789057;33;20047;-72
2022/08/19 07:11:23;;;;;;;3.47;1.25;;;23.40;71.30;;;;;;10791763;33;20298;-72
2022/08/19 07:17:25;;;;;;;3.37;0.70;;;23.50;71.20;;;;;;10791864;33;20348;-72
2022/08/19 07:23:27;;;;;;;1.25;0.50;;;23.30;71.30;;;;;;10787378;33;20036;-71
2022/08/19 07:29:32;;;;;;;2.87;1.35;;;23.20;71.40;;;;;;10791286;33;20046;-72
2022/08/19 07:35:41;;;;;;;7.68;1.50;;;23.20;71.50;;;;;;10790890;33;20013;-72
2022/08/19 07:41:45;;;;;;;1.75;0.90;;;23.20;71.50;;;;;;10790935;33;20608;-72
2022/08/19 07:47:47;;;;;;;0.65;0.43;;;23.20;71.60;;;;;;10790665;33;20054;-72
2022/08/19 07:53:50;;;;;;;0.85;0.70;;;23.20;71.40;;;;;;10790664;33;20025;-72
2022/08/19 07:59:52;;;;;;;0.82;0.70;;;23.30;71.30;;;;;;10790327;33;20389;-72
2022/08/19 08:12:22;;;;;;;2.92;0.68;;;23.30;71.20;;;;;;10790154;33;20020;-72
2022/08/19 08:18:24;;;;;;;;;;;23.30;71.20;;;;;;10790117;33;20040;-72
2022/08/19 08:24:30;;;;;;;2.15;0.88;;;23.40;71.10;;;;;;10789714;33;19942;-72
2022/08/19 08:30:34;;;;;;;1.23;0.45;;;23.40;71.00;;;;;;10789394;33;20365;-72
2022/08/19 08:37:07;;;;;;;1.95;0.80;;;23.50;70.80;;;;;;10789476;33;20056;-72
2022/08/19 08:43:09;;;;;;;7.00;1.05;;;23.30;71.20;;;;;;10788931;33;20092;-73
2022/08/19 08:49:28;;;;;;;0.60;0.55;;;23.30;71.60;;;;;;10788439;33;20105;-72
2022/08/19 08:55:31;;;;;;;3.20;1.00;;;23.30;71.70;;;;;;10788966;33;20372;-72
2022/08/19 09:01:35;;;;;;;2.05;1.17;;;23.30;71.60;;;;;;10788571;33;20316;-73
2022/08/19 09:07:58;;;;;;;2.65;0.82;;;23.30;71.70;;;;;;10788784;33;20052;-72
2022/08/19 09:14:28;;;;;;;3.17;0.88;;;23.30;71.80;;;;;;10788502;33;20028;-72
2022/08/19 09:20:31;;;;;;;1.45;1.15;;;23.30;71.90;;;;;;10788385;33;20017;-72
2022/08/19 09:26:34;;;;;;;1.37;0.98;;;23.40;71.80;;;;;;10787817;33;20028;-72
2022/08/19 09:32:36;;;;;;;3.50;1.35;;;23.40;71.80;;;;;;10787755;33;20086;-72
2022/08/19 09:38:40;;;;;;;2.00;1.15;;;23.50;71.80;;;;;;10787743;33;20341;-72
2022/08/19 09:44:42;;;;;;;3.33;0.80;;;23.60;71.70;;;;;;10787654;33;20066;-73
2022/08/19 09:50:45;;;;;;;1.15;1.00;;;23.70;71.50;;;;;;10787563;33;20051;-72
2022/08/19 09:56:47;;;;;;;3.33;1.05;;;23.80;71.10;;;;;;10789495;33;20348;-72
2022/08/19 10:02:49;;;;;;;1.62;0.73;;;23.90;71.00;;;;;;10789712;33;20032;-72
2022/08/19 10:08:52;;;;;;;5.78;1.40;;;24.20;70.70;;;;;;10793692;33;20039;-72
2022/08/19 10:14:56;;;;;;;0.98;0.60;;;24.30;70.20;;;;;;10793550;33;20047;-72
2022/08/19 10:21:11;;;;;;;1.52;0.70;;;24.40;69.90;;;;;;10793053;33;20381;-72
2022/08/19 10:27:14;;;;;;;0.98;0.47;;;24.50;69.70;;;;;;10789816;33;20050;-72
2022/08/19 10:33:16;;;;;;;4.97;0.70;;;24.80;69.30;;;;;;10792946;33;20012;-72
2022/08/19 10:39:18;;;;;;;1.27;0.52;;;25.00;69.00;;;;;;10792785;33;20029;-72
2022/08/19 10:45:23;;;;;;;4.40;1.20;;;25.20;68.80;;;;;;10792453;33;20050;-72
2022/08/19 10:58:13;;;;;;;5.05;0.73;;;25.00;68.20;;;;;;10790074;33;20066;-72
2022/08/19 11:04:17;;;;;;;1.05;0.45;;;25.20;68.20;;;;;;10792057;33;20396;-72
2022/08/19 11:10:19;;;;;;;1.73;0.45;;;25.40;67.90;;;;;;10791451;33;20016;-72
2022/08/19 11:16:25;;;;;;;5.97;0.75;;;25.50;67.00;;;;;;10791797;33;20046;-72
2022/08/19 11:22:27;;;;;;;3.05;0.70;;;25.60;66.50;;;;;;10791554;33;20345;-72
2022/08/19 11:28:29;;;;;;;1.55;0.47;;;25.70;65.90;;;;;;10791565;33;20401;-72
2022/08/19 11:34:32;;;;;;;2.12;0.68;;;26.00;65.20;;;;;;10778334;33;20039;-72
2022/08/19 11:40:34;;;;;;;1.30;0.80;;;26.10;64.10;;;;;;10791265;33;20423;-72
2022/08/19 11:46:37;;;;;;;2.90;0.82;;;26.10;64.10;;;;;;10790963;33;20043;-72
2022/08/19 11:52:39;;;;;;;0.62;0.47;;;26.10;64.50;;;;;;10790818;33;20054;-72
2022/08/19 11:58:41;;;;;;;0.88;0.60;;;26.10;65.40;;;;;;10790675;33;20404;-72
2022/08/19 12:04:44;;;;;;;0.52;0.50;;;26.00;66.20;;;;;;10790329;33;20054;-72
2022/08/19 12:10:46;;;;;;;1.40;0.85;;;25.90;66.50;;;;;;10790235;33;20043;-72
2022/08/19 12:16:49;;;;;;;2.15;0.50;;;26.00;66.80;;;;;;10790008;33;20024;-73
2022/08/19 12:22:51;;;;;;;1.08;0.55;;;26.10;66.80;;;;;;10789037;33;20020;-72
2022/08/19 12:28:54;;;;;;;1.62;0.77;;;26.20;66.70;;;;;;10793370;27;20043;-72
2022/08/19 12:34:56;;;;;;;2.08;1.00;;;26.20;66.30;;;;;;10788675;33;20020;-72
2022/08/19 12:40:58;;;;;;;6.10;1.23;;;26.10;66.30;;;;;;10767205;33;20060;-72
2022/08/19 12:47:00;;;;;;;1.73;0.93;;;26.00;66.40;;;;;;10785463;33;20408;-72
2022/08/19 12:53:21;;;;;;;1.48;0.70;;;26.00;66.40;;;;;;10789065;33;20388;-72
2022/08/19 12:59:23;;;;;;;5.00;0.90;;;26.20;66.30;;;;;;10788928;33;20055;-72
2022/08/19 13:05:28;;;;;;;2.30;1.12;;;26.30;66.10;;;;;;10788553;33;20033;-72
2022/08/19 13:11:34;;;;;;;2.53;0.73;;;26.40;65.80;;;;;;10788564;33;20024;-72
2022/08/19 13:17:36;;;;;;;3.62;1.35;;;26.40;65.40;;;;;;10788348;33;20392;-72
2022/08/19 13:23:39;;;;;;;1.62;0.62;;;26.50;65.40;;;;;;10787216;33;20102;-73
2022/08/19 13:36:07;;;;;;;2.40;0.70;;;26.60;64.80;;;;;;10786642;33;20388;-72
2022/08/19 13:42:10;;;;;;;1.55;0.82;;;26.80;64.10;;;;;;10786125;33;20062;-72
2022/08/19 13:48:12;;;;;;;2.03;0.88;;;26.90;63.70;;;;;;10787747;33;20086;-73
2022/08/19 13:54:14;;;;;;;2.12;1.02;;;26.90;63.20;;;;;;10787552;33;20024;-72
2022/08/19 14:00:18;;;;;;;1.55;0.95;;;26.90;63.20;;;;;;10787434;33;20032;-72
2022/08/19 14:06:21;;;;;;;4.97;1.05;;;26.90;63.00;;;;;;10787310;33;20050;-72
2022/08/19 14:12:23;;;;;;;0.37;0.30;;;27.00;62.90;;;;;;10787174;33;20024;-72
2022/08/19 14:18:25;;;;;;;2.47;0.45;;;27.10;62.60;;;;;;10787033;33;20024;-72
2022/08/19 14:24:27;;;;;;;1.65;0.43;;;27.30;62.30;;;;;;10978760;32;20022;-72
2022/08/19 14:30:32;;;;;;;3.15;0.68;;;27.30;62.10;;;;;;10978565;32;20041;-72
2022/08/19 14:36:46;;;;;;;5.30;0.70;;;27.50;62.20;;;;;;10978585;32;20038;-72
2022/08/19 14:42:48;;;;;;;2.40;0.88;;;27.80;62.00;;;;;;10979230;32;20089;-72
2022/08/19 14:48:50;;;;;;;1.35;0.62;;;27.80;61.80;;;;;;10984993;32;20312;-72
2022/08/19 14:54:52;;;;;;;1.95;0.70;;;27.80;61.70;;;;;;10919815;32;20026;-72
2022/08/19 15:00:54;;;;;;;4.55;1.02;;;27.80;61.10;;;;;;10983514;32;20043;-72
2022/08/19 15:06:56;;;;;;;1.42;0.57;;;27.90;60.10;;;;;;10919270;32;20309;-72
2022/08/19 15:12:59;;;;;;;4.50;1.05;;;28.00;60.40;;;;;;10984107;32;20092;-72
2022/08/19 15:19:01;;;;;;;1.75;0.43;;;28.10;59.80;;;;;;10915740;32;20048;-72
2022/08/19 15:25:05;;;;;;;0.98;0.45;;;28.20;59.90;;;;;;10980467;32;20035;-72
2022/08/19 15:31:07;;;;;;;2.25;0.62;;;28.30;59.70;;;;;;10983575;32;20300;-72
2022/08/19 15:37:10;;;;;;;2.65;0.77;;;28.30;59.40;;;;;;10983316;32;20026;-72
2022/08/19 15:43:12;;;;;;;1.10;0.57;;;28.40;59.30;;;;;;10979257;32;20322;-72
2022/08/19 15:49:16;;;;;;;0.95;0.45;;;28.30;59.90;;;;;;10930271;32;20023;-72
2022/08/19 15:55:21;;;;;;;1.12;0.62;;;28.20;60.60;;;;;;10979470;32;20042;-72
2022/08/19 16:07:47;;;;;;;4.03;0.90;;;28.50;60.50;;;;;;10977527;32;20022;-72
2022/08/19 16:13:50;;;;;;;2.10;0.73;;;28.50;60.60;;;;;;10980935;32;20062;-72
2022/08/19 16:19:53;;;;;;;7.20;1.25;;;28.40;61.00;;;;;;10980914;32;20019;-72
2022/08/19 16:25:55;;;;;;;0.80;0.50;;;28.40;61.10;;;;;;10981289;32;20069;-72
2022/08/19 16:31:57;;;;;;;2.67;1.12;;;28.40;61.30;;;;;;10981015;32;20049;-72
2022/08/19 16:38:00;;;;;;;2.92;0.82;;;28.30;61.50;;;;;;10981191;32;20058;-72
2022/08/19 16:44:04;;;;;;;4.50;1.62;;;28.20;61.40;;;;;;10978660;32;20034;-72
2022/08/19 16:50:08;;;;;;;1.00;0.50;;;28.10;61.60;;;;;;10976378;32;20054;-72
2022/08/19 16:56:40;;;;;;;4.28;0.85;;;28.10;61.50;;;;;;10980682;32;20018;-72
2022/08/19 17:02:48;;;;;;;3.75;1.00;;;28.20;61.40;;;;;;10966905;32;20034;-72
2022/08/19 17:08:53;;;;;;;1.65;0.65;;;28.40;61.10;;;;;;10976131;32;20421;-72
2022/08/19 17:14:55;;;;;;;1.80;0.90;;;28.30;61.40;;;;;;10966712;32;20030;-72
2022/08/19 17:20:59;;;;;;;2.10;0.70;;;28.20;61.70;;;;;;10979921;32;20019;-72
2022/08/19 17:27:04;;;;;;;1.33;0.65;;;28.00;62.00;;;;;;10976566;32;20358;-72
2022/08/19 17:33:07;;;;;;;1.15;0.50;;;27.90;62.20;;;;;;10978825;32;20030;-72
2022/08/19 17:39:09;;;;;;;2.15;0.90;;;27.60;62.60;;;;;;10978212;32;20062;-72
2022/08/19 17:45:12;;;;;;;1.85;0.95;;;27.40;63.00;;;;;;10978686;32;20024;-72
2022/08/19 17:51:22;;;;;;;2.22;0.75;;;27.20;63.40;;;;;;10979519;32;20030;-72
2022/08/19 17:57:24;;;;;;;1.65;0.70;;;27.00;63.60;;;;;;10975112;32;20011;-72
2022/08/19 18:03:29;;;;;;;1.98;0.82;;;26.90;63.80;;;;;;10977796;32;20046;-72
2022/08/19 18:09:37;;;;;;;1.45;0.85;;;26.80;64.00;;;;;;10978521;32;20023;-72
2022/08/19 18:15:41;;;;;;;2.10;0.80;;;26.70;64.20;;;;;;10976669;32;20062;-72
2022/08/19 18:21:43;;;;;;;1.60;1.00;;;26.60;64.30;;;;;;10984676;32;20023;-72
2022/08/19 18:27:46;;;;;;;1.92;0.60;;;26.50;64.50;;;;;;10981700;32;20053;-72
2022/08/19 18:33:51;;;;;;;3.37;1.55;;;26.30;64.60;;;;;;10984349;32;20026;-72
2022/08/19 18:52:35;;;;;;;3.97;1.70;;;26.10;64.90;;;;;;10985168;32;20050;-72
2022/08/19 18:58:39;;;;;;;5.68;2.10;;;26.10;65.00;;;;;;10981232;32;20023;-72
2022/08/19 19:04:41;;;;;;;4.32;1.45;;;26.00;65.10;;;;;;10983482;32;20026;-72
2022/08/19 19:10:43;;;;;;;2.95;1.40;;;25.90;65.20;;;;;;10984618;32;20027;-72
2022/08/19 19:16:46;;;;;;;4.57;1.58;;;25.80;65.20;;;;;;10983842;32;20053;-72
2022/08/19 19:22:51;;;;;;;10.73;2.62;;;25.80;65.30;;;;;;10984165;32;20018;-72
2022/08/19 19:28:53;;;;;;;7.40;1.98;;;25.80;65.40;;;;;;10982668;32;20045;-72
2022/08/19 19:34:58;;;;;;;1.58;1.37;;;25.70;65.40;;;;;;10983549;32;20026;-72
2022/08/19 19:41:01;;;;;;;5.30;1.70;;;25.70;65.40;;;;;;10979188;32;20388;-72
2022/08/19 19:47:14;;;;;;;3.17;1.30;;;25.60;65.60;;;;;;10983070;32;20045;-72
2022/08/19 19:53:16;;;;;;;2.95;0.80;;;25.50;65.70;;;;;;10981209;32;20065;-72
2022/08/19 19:59:18;;;;;;;3.10;1.42;;;25.40;65.90;;;;;;10982557;32;20019;-72
2022/08/19 20:05:22;;;;;;;4.87;1.40;;;25.30;66.10;;;;;;10981593;32;20031;-72
2022/08/19 20:11:34;;;;;;;7.43;1.77;;;25.20;66.20;;;;;;10981580;32;20026;-72
2022/08/19 20:17:41;;;;;;;4.03;1.58;;;25.10;66.20;;;;;;10980953;32;20038;-72
2022/08/19 20:23:43;;;;;;;4.43;1.67;;;25.10;66.30;;;;;;10975796;32;20060;-72
2022/08/19 20:29:46;;;;;;;3.37;1.55;;;25.10;66.30;;;;;;10549602;27;12694714;-72
2022/08/19 20:35:47;;;;;;;1.80;1.12;;;25.10;66.40;;;;;;10900157;32;20039;-72
2022/08/19 20:41:50;;;;;;;3.40;1.42;;;25.10;66.40;;;;;;10896645;32;20391;-72
2022/08/19 20:47:52;;;;;;;2.75;1.62;;;25.00;66.50;;;;;;10901289;32;20042;-72
2022/08/19 20:53:55;;;;;;;3.37;1.42;;;24.80;66.60;;;;;;10902386;32;20011;-72
2022/08/19 20:59:57;;;;;;;4.60;1.30;;;24.80;66.70;;;;;;10904823;32;20020;-72
2022/08/19 21:06:01;;;;;;;6.80;1.10;;;24.80;66.70;;;;;;10904297;32;20392;-72
2022/08/19 21:12:05;;;;;;;2.47;1.48;;;24.70;66.70;;;;;;10901581;32;20026;-72
2022/08/19 21:18:09;;;;;;;2.10;1.02;;;24.70;66.90;;;;;;10904081;32;20015;-72
2022/08/19 21:24:11;;;;;;;2.62;1.73;;;24.60;67.00;;;;;;10904149;32;20349;-72
2022/08/19 21:30:13;;;;;;;3.20;1.60;;;24.50;67.10;;;;;;10904296;32;20015;-72
2022/08/19 21:36:16;;;;;;;3.45;1.45;;;24.60;67.10;;;;;;10904809;32;20037;-72
2022/08/19 21:42:18;;;;;;;3.78;1.33;;;24.60;67.00;;;;;;10903598;32;20395;-72
2022/08/19 21:48:21;;;;;;;3.40;2.05;;;24.40;67.20;;;;;;10903823;32;20046;-72
2022/08/19 21:54:23;;;;;;;5.97;2.03;;;24.30;67.50;;;;;;10904593;32;20027;-72
2022/08/19 22:00:27;;;;;;;2.62;1.50;;;24.30;67.60;;;;;;10907088;32;20042;-72
2022/08/19 22:06:29;;;;;;;7.03;2.10;;;24.30;67.70;;;;;;10909072;32;20093;-72
2022/08/19 22:12:34;;;;;;;2.45;1.45;;;24.30;67.70;;;;;;10910661;32;20011;-72
2022/08/19 22:18:36;;;;;;;2.22;1.58;;;24.30;67.60;;;;;;10910457;32;20019;-72
2022/08/19 22:24:38;;;;;;;4.03;2.17;;;24.00;67.90;;;;;;10908789;32;20383;-72
2022/08/19 22:30:43;;;;;;;2.62;1.55;;;23.90;68.10;;;;;;10908760;32;20019;-72
2022/08/19 22:36:45;;;;;;;2.58;1.52;;;23.90;68.10;;;;;;10907852;32;20103;-72
2022/08/19 22:42:47;;;;;;;2.30;1.62;;;23.90;68.00;;;;;;10909906;32;20023;-72
2022/08/19 22:48:49;;;;;;;2.83;1.70;;;24.00;67.90;;;;;;10909930;32;20382;-72
2022/08/19 22:54:55;;;;;;;3.62;1.30;;;24.10;67.80;;;;;;10908585;32;20050;-72
2022/08/19 23:01:23;;;;;;;4.15;1.73;;;24.20;67.80;;;;;;10909512;32;20328;-72
2022/08/19 23:07:25;;;;;;;3.25;1.20;;;24.20;67.90;;;;;;10906207;32;20046;-72
2022/08/19 23:13:30;;;;;;;3.25;2.17;;;24.10;67.90;;;;;;10942724;32;20030;-72
2022/08/19 23:19:32;;;;;;;2.97;1.48;;;24.00;68.20;;;;;;10914686;32;20042;-72
2022/08/19 23:25:36;;;;;;;2.12;1.48;;;24.00;68.20;;;;;;10908537;32;20388;-72
2022/08/19 23:31:38;;;;;;;2.47;1.17;;;24.10;68.30;;;;;;10905348;32;20018;-72
2022/08/19 23:37:40;;;;;;;4.43;1.70;;;24.00;68.30;;;;;;10908400;32;20043;-72
2022/08/19 23:43:43;;;;;;;3.58;1.83;;;23.90;68.40;;;;;;10904502;32;20042;-72
2022/08/19 23:49:47;;;;;;;2.33;1.48;;;23.80;68.50;;;;;;10907773;32;20019;-72
2022/08/19 23:55:49;;;;;;;2.70;1.55;;;23.80;68.60;;;;;;10907342;32;20011;-72
